createdAt,value
2018-09-11T00:01:23.531Z,8.13
2018-09-11T00:07:18.528Z,8.03
2018-09-11T00:13:13.567Z,8.16
2018-09-11T00:19:08.537Z,8.34
2018-09-11T00:25:03.550Z,8.26
2018-09-11T00:30:58.541Z,8.41
2018-09-11T00:36:53.541Z,8.17
2018-09-11T00:42:48.555Z,7.2
2018-09-11T00:48:43.550Z,6.83
2018-09-11T00:54:38.550Z,8.05
2018-09-11T01:00:33.580Z,7.79
2018-09-11T01:06:28.566Z,6.6
2018-09-11T01:12:23.576Z,6.93
2018-09-11T01:18:18.628Z,7.01
2018-09-11T01:24:13.595Z,7.05
2018-09-11T01:30:08.591Z,6.77
2018-09-11T01:36:03.584Z,7.02
2018-09-11T01:41:58.631Z,6.64
2018-09-11T01:47:53.589Z,7.13
2018-09-11T01:53:48.595Z,7.21
2018-09-11T01:59:43.586Z,7.65
2018-09-11T02:05:38.624Z,6.75
2018-09-11T02:11:33.634Z,6.98
2018-09-11T02:17:28.613Z,7.24
2018-09-11T02:23:23.644Z,7.59
2018-09-11T02:29:18.614Z,7.72
2018-09-11T02:35:13.614Z,8.81
2018-09-11T02:41:08.619Z,8.58
2018-09-11T02:47:03.641Z,9.36
2018-09-11T02:52:58.711Z,8.98
2018-09-11T02:58:53.636Z,8.53
2018-09-11T03:04:48.629Z,10.2
2018-09-11T03:10:43.692Z,8.7
2018-09-11T03:16:38.680Z,9.45
2018-09-11T03:22:33.682Z,9.18
2018-09-11T03:28:28.689Z,9.65
2018-09-11T03:34:23.676Z,8.52
2018-09-11T03:40:18.668Z,9.56
2018-09-11T03:46:13.685Z,8.89
2018-09-11T03:52:08.662Z,8.45
2018-09-11T03:58:03.659Z,8.8
2018-09-11T04:03:58.672Z,10.17
2018-09-11T04:09:53.691Z,9.57
2018-09-11T04:15:48.686Z,9.98
2018-09-11T04:21:43.715Z,10.1
2018-09-11T04:27:38.695Z,10.97
2018-09-11T04:33:33.698Z,11.42
2018-09-11T04:39:28.706Z,11.44
2018-09-11T04:45:23.703Z,11.47
2018-09-11T04:51:18.691Z,12.17
2018-09-11T04:57:13.744Z,12.5
2018-09-11T05:03:08.774Z,11.95
2018-09-11T05:09:03.740Z,12.04
2018-09-11T05:14:58.736Z,10.71
2018-09-11T05:20:53.725Z,11.13
2018-09-11T05:26:48.720Z,14.2
2018-09-11T05:32:43.708Z,14.66
2018-09-11T05:38:38.741Z,13.99
2018-09-11T05:44:33.763Z,12.99
2018-09-11T05:50:28.748Z,12.54
2018-09-11T05:56:23.737Z,12.2
2018-09-11T06:02:18.753Z,10.5
2018-09-11T06:08:13.756Z,11.1
2018-09-11T06:14:08.780Z,11.16
2018-09-11T06:20:03.776Z,11.25
2018-09-11T06:25:58.761Z,11.51
2018-09-11T06:31:53.767Z,10.77
2018-09-11T06:37:48.769Z,8.83
2018-09-11T06:43:43.777Z,6.32
2018-09-11T06:49:38.787Z,6.43
2018-09-11T06:55:33.784Z,6.45
2018-09-11T07:01:28.774Z,7.73
2018-09-11T07:07:23.791Z,7.6
2018-09-11T07:13:18.833Z,6.98
2018-09-11T07:19:13.812Z,6.48
2018-09-11T07:25:08.805Z,6.78
2018-09-11T07:31:04.048Z,6
2018-09-11T07:36:58.807Z,5.19
2018-09-11T07:42:53.836Z,7.12
2018-09-11T07:48:48.805Z,7.91
2018-09-11T07:54:43.810Z,7.01
2018-09-11T08:00:38.909Z,7.96
2018-09-11T08:06:33.815Z,8
2018-09-11T08:12:28.832Z,7.15
2018-09-11T08:18:23.820Z,8.42
2018-09-11T08:24:18.869Z,8.16
2018-09-11T08:30:13.848Z,7.85
2018-09-11T08:36:08.842Z,7.3
2018-09-11T08:42:03.872Z,7.68
2018-09-11T08:47:58.841Z,7.39
2018-09-11T08:53:53.843Z,6.9
2018-09-11T08:59:48.863Z,6.84
2018-09-11T09:05:43.850Z,6.5
2018-09-11T09:11:38.876Z,6.98
2018-09-11T09:17:33.891Z,6.29
2018-09-11T09:23:28.855Z,6.43
2018-09-11T09:29:23.869Z,6.47
2018-09-11T09:35:18.908Z,7.54
2018-09-11T09:41:13.863Z,7.67
2018-09-11T09:47:08.896Z,8.03
2018-09-11T09:53:03.916Z,6.58
2018-09-11T09:58:58.890Z,7.38
2018-09-11T10:04:53.972Z,6.88
2018-09-11T10:10:48.926Z,5.8
2018-09-11T10:16:43.959Z,6.3
2018-09-11T10:22:38.940Z,6.11
2018-09-11T10:28:33.942Z,5.67
2018-09-11T10:34:28.924Z,6.17
2018-09-11T10:40:23.899Z,5.78
2018-09-11T10:46:18.905Z,5.43
2018-09-11T10:52:13.902Z,6.24
2018-09-11T10:58:08.936Z,5.13
2018-09-11T11:04:03.925Z,4.89
2018-09-11T11:09:58.964Z,4.74
2018-09-11T11:15:53.964Z,4.63
2018-09-11T11:21:48.983Z,4.97
2018-09-11T11:27:43.943Z,5
2018-09-11T11:33:38.958Z,4.83
2018-09-11T11:39:33.948Z,5.16
2018-09-11T11:45:28.944Z,4.65
2018-09-11T11:51:23.996Z,4.99
2018-09-11T11:57:18.972Z,4.45
2018-09-11T12:03:14.005Z,3.76
2018-09-11T12:09:08.981Z,4.93
2018-09-11T12:15:03.976Z,4.12
2018-09-11T12:20:58.999Z,4.18
2018-09-11T12:26:54.026Z,3.75
2018-09-11T12:32:49.012Z,3.8
2018-09-11T12:38:43.974Z,3.47
2018-09-11T12:44:39.012Z,3.03
2018-09-11T12:50:33.997Z,4.33
2018-09-11T12:56:29.040Z,3.6
2018-09-11T13:02:24.073Z,2.95
2018-09-11T13:08:19.032Z,3.38
2018-09-11T13:14:14.046Z,3.31
2018-09-11T13:20:09.060Z,2.67
2018-09-11T13:26:04.055Z,2.74
2018-09-11T13:31:59.038Z,3.42
2018-09-11T13:37:54.021Z,2.51
2018-09-11T13:43:49.040Z,2.81
2018-09-11T13:49:44.040Z,2.89
2018-09-11T13:55:39.038Z,2.85
2018-09-11T14:01:34.055Z,3.08
2018-09-11T14:07:29.048Z,2.64
2018-09-11T14:13:24.113Z,2.74
2018-09-11T14:19:19.047Z,4.07
2018-09-11T14:25:14.064Z,4.38
2018-09-11T14:31:09.042Z,3.7
2018-09-11T14:37:04.064Z,3.97
2018-09-11T14:42:59.094Z,3.09
2018-09-11T14:48:54.137Z,3.49
2018-09-11T14:54:49.091Z,3.9
2018-09-11T15:00:44.167Z,5.4
2018-09-11T15:06:39.073Z,3.95
2018-09-11T15:12:34.096Z,4.2
2018-09-11T15:18:29.120Z,3.95
2018-09-11T15:24:24.095Z,4.08
2018-09-11T15:30:19.113Z,4.08
2018-09-11T15:36:14.119Z,3.33
2018-09-11T15:42:09.105Z,3.82
2018-09-11T15:48:04.108Z,3.69
2018-09-11T15:53:59.152Z,3.23
2018-09-11T15:59:54.169Z,3.66
2018-09-11T16:05:49.118Z,3.31
2018-09-11T16:11:44.163Z,3.68
2018-09-11T16:17:39.135Z,3.6
2018-09-11T16:23:34.123Z,3.43
2018-09-11T16:29:29.177Z,3.41
2018-09-11T16:35:24.158Z,3.42
2018-09-11T16:41:19.146Z,3.29
2018-09-11T16:47:14.130Z,2.89
2018-09-11T16:53:09.213Z,3.2
2018-09-11T16:59:04.207Z,2.86
2018-09-11T17:04:59.179Z,2.88
2018-09-11T17:10:54.162Z,3.44
2018-09-11T17:16:49.167Z,3.33
2018-09-11T17:22:44.170Z,3.38
2018-09-11T17:28:39.170Z,4.56
2018-09-11T17:34:34.188Z,4.21
2018-09-11T17:40:29.201Z,3.07
2018-09-11T17:46:24.247Z,3.33
2018-09-11T17:52:19.186Z,3.6
2018-09-11T17:58:14.204Z,3.57
2018-09-11T18:04:09.240Z,3.94
2018-09-11T18:10:04.202Z,3.91
2018-09-11T18:15:59.213Z,4.99
2018-09-11T18:21:54.233Z,13.37
2018-09-11T18:27:49.207Z,15.08
2018-09-11T18:33:44.222Z,16.71
2018-09-11T18:39:39.291Z,15.83
2018-09-11T18:45:34.269Z,16.17
2018-09-11T18:51:29.335Z,8.14
2018-09-11T18:57:24.244Z,6.94
2018-09-11T19:03:19.262Z,7.65
2018-09-11T19:09:14.244Z,6.89
2018-09-11T19:15:09.256Z,6.84
2018-09-11T19:21:04.260Z,5.19
2018-09-11T19:26:59.390Z,6.05
2018-09-11T19:32:54.294Z,5.4
2018-09-11T19:38:49.302Z,5.57
2018-09-11T19:44:44.297Z,5.15
2018-09-11T19:50:39.312Z,5.07
2018-09-11T19:56:34.262Z,5.27
2018-09-11T20:02:29.281Z,5.94
2018-09-11T20:08:24.274Z,5.43
2018-09-11T20:14:19.292Z,7.8
2018-09-11T20:20:14.296Z,6.85
2018-09-11T20:26:09.293Z,6.92
2018-09-11T20:32:04.416Z,6.34
2018-09-11T20:37:59.297Z,6.55
2018-09-11T20:43:54.309Z,7.12
2018-09-11T20:49:49.300Z,7.96
2018-09-11T20:55:44.296Z,8.1
2018-09-11T21:01:39.312Z,8.49
2018-09-11T21:07:34.315Z,9.29
2018-09-11T21:13:29.311Z,8.05
2018-09-11T21:19:24.336Z,8.37
2018-09-11T21:25:19.326Z,7.66
2018-09-11T21:31:14.350Z,8.79
2018-09-11T21:37:09.343Z,8.16
2018-09-11T21:43:04.362Z,8.34
2018-09-11T21:48:59.375Z,7.83
2018-09-11T21:54:54.390Z,7.63
2018-09-11T22:00:49.328Z,6.54
2018-09-11T22:06:44.382Z,7.2
2018-09-11T22:12:39.370Z,6.32
2018-09-11T22:18:34.417Z,7.15
2018-09-11T22:24:29.363Z,7.85
2018-09-11T22:30:24.378Z,6.86
2018-09-11T22:36:19.383Z,8.67
2018-09-11T22:42:14.366Z,7.43
2018-09-11T22:48:09.394Z,6.43
2018-09-11T22:54:04.382Z,6.8
2018-09-11T22:59:59.414Z,8.79
2018-09-11T23:05:54.392Z,7.76
2018-09-11T23:11:49.430Z,7.32
2018-09-11T23:17:44.397Z,7.72
2018-09-11T23:23:39.399Z,7.61
2018-09-11T23:35:29.449Z,8.33
2018-09-11T23:35:29.498Z,8.77
2018-09-11T23:41:24.423Z,8.95
2018-09-11T23:47:19.421Z,7.88
2018-09-11T23:53:14.445Z,7.94
2018-09-11T23:59:09.465Z,7.35
